TGW251 WAHS-WSSS
Flight info
| Callsign | TGW251 |
|---|---|
| Flight time | 1h 41m |
| Altitude | 36000 |
| Route | RAFIS1F RAFIS M635 SURGA T23 UGEBO UGEBO1A |
| Aircraft | A320/M-SDE3FGHIRWY/LB1 |
Departure
| Time | 2026-04-21 07:35 |
|---|---|
| Airport | Jenderal Ahmad Yani Airport (WAHS) |
Arrival
| Time | 2026-04-21 09:16 |
|---|---|
| Airport | Singapore Changi Airport (WSSS) |
| Time | Latitude | Longitude | Altitude | Speed | Heading |
|---|---|---|---|---|---|
| 2026-04-21 07:26 | -6.96742 | 110.37485 | 19 ft | 0 kts | 40° |
| 2026-04-21 07:26 | -6.96746 | 110.37482 | 19 ft | 2 kts | 41° |
| 2026-04-21 07:27 | -6.96760 | 110.37469 | 19 ft | 3 kts | 46° |
| 2026-04-21 07:27 | -6.96773 | 110.37453 | 19 ft | 3 kts | 56° |
| 2026-04-21 07:27 | -6.96783 | 110.37436 | 19 ft | 3 kts | 76° |
| 2026-04-21 07:27 | -6.96784 | 110.37419 | 18 ft | 3 kts | 118° |
| 2026-04-21 07:28 | -6.96780 | 110.37411 | 18 ft | 1 kts | 130° |
| 2026-04-21 07:28 | -6.96779 | 110.37410 | 18 ft | 0 kts | 130° |
| 2026-04-21 07:30 | -6.96802 | 110.37438 | 18 ft | 7 kts | 130° |
| 2026-04-21 07:30 | -6.96838 | 110.37480 | 18 ft | 9 kts | 130° |
| 2026-04-21 07:31 | -6.96887 | 110.37539 | 19 ft | 13 kts | 130° |
| 2026-04-21 07:31 | -6.96949 | 110.37543 | 19 ft | 11 kts | 221° |
| 2026-04-21 07:31 | -6.97014 | 110.37487 | 17 ft | 14 kts | 220° |
| 2026-04-21 07:31 | -6.97116 | 110.37416 | 4 ft | 21 kts | 190° |
| 2026-04-21 07:32 | -6.97210 | 110.37499 | 4 ft | 19 kts | 129° |
| 2026-04-21 07:32 | -6.97297 | 110.37601 | 6 ft | 20 kts | 129° |
| 2026-04-21 07:32 | -6.97390 | 110.37712 | 5 ft | 21 kts | 130° |
| 2026-04-21 07:32 | -6.97488 | 110.37828 | 7 ft | 22 kts | 130° |
| 2026-04-21 07:33 | -6.97593 | 110.37950 | 7 ft | 24 kts | 131° |
| 2026-04-21 07:33 | -6.97671 | 110.38050 | 6 ft | 8 kts | 110° |
| 2026-04-21 07:33 | -6.97685 | 110.38105 | 6 ft | 8 kts | 121° |
| 2026-04-21 07:33 | -6.97717 | 110.38095 | 6 ft | 5 kts | 291° |
| 2026-04-21 07:34 | -6.97713 | 110.38092 | 7 ft | 0 kts | 311° |
| 2026-04-21 07:34 | -6.97710 | 110.38089 | 6 ft | 3 kts | 311° |
| 2026-04-21 07:34 | -6.97573 | 110.37927 | 6 ft | 66 kts | 310° |
| 2026-04-21 07:34 | -6.97139 | 110.37412 | 4 ft | 124 kts | 310° |
| 2026-04-21 07:35 | -6.96479 | 110.36631 | 51 ft | 163 kts | 309° |
| 2026-04-21 07:35 | -6.95747 | 110.35761 | 682 ft | 163 kts | 309° |
| 2026-04-21 07:35 | -6.95051 | 110.34947 | 1350 ft | 162 kts | 309° |
| 2026-04-21 07:35 | -6.94267 | 110.34157 | 1949 ft | 171 kts | 326° |
| 2026-04-21 07:36 | -6.93144 | 110.33568 | 2270 ft | 194 kts | 335° |
| 2026-04-21 07:36 | -6.91835 | 110.33017 | 2514 ft | 213 kts | 337° |
| 2026-04-21 07:36 | -6.90392 | 110.32434 | 2805 ft | 232 kts | 338° |
| 2026-04-21 07:36 | -6.88826 | 110.31794 | 3142 ft | 253 kts | 337° |
| 2026-04-21 07:37 | -6.87209 | 110.31119 | 3554 ft | 270 kts | 338° |
| 2026-04-21 07:37 | -6.85453 | 110.30367 | 4323 ft | 277 kts | 338° |
| 2026-04-21 07:37 | -6.83673 | 110.29597 | 5189 ft | 281 kts | 338° |
| 2026-04-21 07:37 | -6.81864 | 110.28813 | 6039 ft | 284 kts | 338° |
| 2026-04-21 07:38 | -6.80043 | 110.28005 | 6871 ft | 288 kts | 337° |
| 2026-04-21 07:38 | -6.78221 | 110.27195 | 7662 ft | 291 kts | 337° |
| 2026-04-21 07:38 | -6.76359 | 110.26366 | 8417 ft | 294 kts | 338° |
| 2026-04-21 07:38 | -6.74470 | 110.25519 | 9128 ft | 299 kts | 337° |
| 2026-04-21 07:39 | -6.72562 | 110.24661 | 9825 ft | 303 kts | 337° |
| 2026-04-21 07:39 | -6.70607 | 110.23785 | 10253 ft | 318 kts | 338° |
| 2026-04-21 07:39 | -6.68521 | 110.22864 | 10384 ft | 339 kts | 338° |
| 2026-04-21 07:39 | -6.66289 | 110.21884 | 10518 ft | 359 kts | 338° |
| 2026-04-21 07:40 | -6.63951 | 110.20855 | 10776 ft | 373 kts | 338° |
| 2026-04-21 07:40 | -6.61561 | 110.19797 | 11295 ft | 378 kts | 337° |
| 2026-04-21 07:40 | -6.59176 | 110.18739 | 11874 ft | 381 kts | 337° |
| 2026-04-21 07:40 | -6.56745 | 110.17662 | 12466 ft | 384 kts | 337° |
| 2026-04-21 07:41 | -6.54290 | 110.16573 | 13041 ft | 387 kts | 337° |
| 2026-04-21 07:41 | -6.51819 | 110.15476 | 13598 ft | 390 kts | 338° |
| 2026-04-21 07:41 | -6.49259 | 110.14575 | 14125 ft | 392 kts | 348° |
| 2026-04-21 07:41 | -6.46552 | 110.14188 | 14647 ft | 393 kts | 359° |
| 2026-04-21 07:42 | -6.43818 | 110.14345 | 15160 ft | 395 kts | 10° |
| 2026-04-21 07:42 | -6.41156 | 110.15039 | 15683 ft | 397 kts | 21° |
| 2026-04-21 07:42 | -6.38628 | 110.16172 | 16176 ft | 400 kts | 26° |
| 2026-04-21 07:42 | -6.36007 | 110.17128 | 16682 ft | 404 kts | 15° |
| 2026-04-21 07:43 | -6.33206 | 110.17542 | 17174 ft | 410 kts | 3° |
| 2026-04-21 07:43 | -6.30350 | 110.17364 | 17665 ft | 414 kts | 351° |
| 2026-04-21 07:43 | -6.27544 | 110.16633 | 18154 ft | 419 kts | 343° |
| 2026-04-21 07:43 | -6.24758 | 110.15772 | 18631 ft | 422 kts | 344° |
| 2026-04-21 07:44 | -6.21970 | 110.14917 | 19099 ft | 425 kts | 344° |
| 2026-04-21 07:44 | -6.19130 | 110.14050 | 19546 ft | 428 kts | 344° |
| 2026-04-21 07:44 | -6.16271 | 110.13181 | 19986 ft | 431 kts | 343° |
| 2026-04-21 07:44 | -6.13394 | 110.12305 | 20406 ft | 433 kts | 343° |
| 2026-04-21 07:45 | -6.10497 | 110.11425 | 20804 ft | 436 kts | 343° |
| 2026-04-21 07:45 | -6.07585 | 110.10540 | 21193 ft | 439 kts | 343° |
| 2026-04-21 07:45 | -6.04656 | 110.09647 | 21565 ft | 441 kts | 343° |
| 2026-04-21 07:45 | -6.01709 | 110.08749 | 21918 ft | 444 kts | 343° |
| 2026-04-21 07:46 | -5.98748 | 110.07845 | 22253 ft | 446 kts | 343° |
| 2026-04-21 07:46 | -5.95814 | 110.06948 | 22560 ft | 448 kts | 343° |
| 2026-04-21 07:46 | -5.92828 | 110.06039 | 22866 ft | 450 kts | 343° |
| 2026-04-21 07:46 | -5.89827 | 110.05122 | 23164 ft | 452 kts | 343° |
| 2026-04-21 07:47 | -5.86809 | 110.04200 | 23460 ft | 454 kts | 343° |
| 2026-04-21 07:47 | -5.83783 | 110.03278 | 23728 ft | 456 kts | 343° |
| 2026-04-21 07:47 | -5.80742 | 110.02351 | 24000 ft | 458 kts | 343° |
| 2026-04-21 07:47 | -5.77693 | 110.01424 | 24259 ft | 459 kts | 343° |
| 2026-04-21 07:48 | -5.74613 | 110.00492 | 24524 ft | 461 kts | 343° |
| 2026-04-21 07:48 | -5.71542 | 109.99559 | 24786 ft | 462 kts | 343° |
| 2026-04-21 07:48 | -5.68501 | 109.98632 | 25039 ft | 463 kts | 343° |
| 2026-04-21 07:48 | -5.65411 | 109.97688 | 25293 ft | 465 kts | 343° |
| 2026-04-21 07:49 | -5.62315 | 109.96739 | 25533 ft | 466 kts | 343° |
| 2026-04-21 07:49 | -5.59213 | 109.95784 | 25772 ft | 467 kts | 343° |
| 2026-04-21 07:49 | -5.56097 | 109.94826 | 26005 ft | 469 kts | 343° |
| 2026-04-21 07:49 | -5.52972 | 109.93871 | 26245 ft | 470 kts | 343° |
| 2026-04-21 07:50 | -5.49842 | 109.92915 | 26477 ft | 471 kts | 343° |
| 2026-04-21 07:50 | -5.46702 | 109.91954 | 26707 ft | 472 kts | 343° |
| 2026-04-21 07:50 | -5.43566 | 109.90997 | 27030 ft | 470 kts | 343° |
| 2026-04-21 07:50 | -5.40440 | 109.90046 | 27360 ft | 469 kts | 343° |
| 2026-04-21 07:51 | -5.37360 | 109.89107 | 27691 ft | 468 kts | 343° |
| 2026-04-21 07:51 | -5.34247 | 109.88160 | 28047 ft | 467 kts | 343° |
| 2026-04-21 07:51 | -5.31144 | 109.87216 | 28403 ft | 465 kts | 343° |
| 2026-04-21 07:51 | -5.28046 | 109.86272 | 28773 ft | 464 kts | 343° |
| 2026-04-21 07:52 | -5.24964 | 109.85331 | 29134 ft | 463 kts | 343° |
| 2026-04-21 07:52 | -5.21894 | 109.84393 | 29489 ft | 462 kts | 343° |
| 2026-04-21 07:52 | -5.18817 | 109.83454 | 29855 ft | 461 kts | 343° |
| 2026-04-21 07:52 | -5.15753 | 109.82515 | 30242 ft | 459 kts | 343° |
| 2026-04-21 07:53 | -5.12702 | 109.81582 | 30617 ft | 458 kts | 343° |
| 2026-04-21 07:53 | -5.09694 | 109.80665 | 30998 ft | 457 kts | 343° |
| 2026-04-21 07:53 | -5.06655 | 109.79739 | 31388 ft | 456 kts | 343° |
| 2026-04-21 07:53 | -5.03621 | 109.78816 | 31751 ft | 455 kts | 343° |
| 2026-04-21 07:54 | -5.00596 | 109.77893 | 32132 ft | 454 kts | 343° |
| 2026-04-21 07:54 | -4.97578 | 109.76972 | 32516 ft | 453 kts | 343° |
| 2026-04-21 07:54 | -4.94564 | 109.76055 | 32907 ft | 452 kts | 343° |
| 2026-04-21 07:54 | -4.91558 | 109.75140 | 33289 ft | 451 kts | 343° |
| 2026-04-21 07:55 | -4.88563 | 109.74225 | 33641 ft | 450 kts | 343° |
| 2026-04-21 07:55 | -4.85566 | 109.73309 | 34007 ft | 449 kts | 343° |
| 2026-04-21 07:55 | -4.82582 | 109.72400 | 34363 ft | 448 kts | 343° |
| 2026-04-21 07:55 | -4.79641 | 109.71503 | 34701 ft | 447 kts | 343° |
| 2026-04-21 07:56 | -4.76669 | 109.70597 | 35030 ft | 446 kts | 343° |
| 2026-04-21 07:56 | -4.73700 | 109.69694 | 35339 ft | 446 kts | 343° |
| 2026-04-21 07:56 | -4.70732 | 109.68790 | 35640 ft | 445 kts | 343° |
| 2026-04-21 07:56 | -4.67764 | 109.67887 | 35765 ft | 447 kts | 343° |
| 2026-04-21 07:57 | -4.61735 | 109.66055 | 35798 ft | 457 kts | 343° |
| 2026-04-21 07:57 | -4.55665 | 109.64199 | 35796 ft | 460 kts | 343° |
| 2026-04-21 07:58 | -4.49535 | 109.62326 | 35796 ft | 461 kts | 343° |
| 2026-04-21 07:58 | -4.43398 | 109.60465 | 35795 ft | 461 kts | 344° |
| 2026-04-21 07:59 | -4.37263 | 109.58601 | 35797 ft | 461 kts | 343° |
| 2026-04-21 07:59 | -4.31121 | 109.56728 | 35801 ft | 461 kts | 343° |
| 2026-04-21 08:00 | -4.25018 | 109.54865 | 35797 ft | 461 kts | 343° |
| 2026-04-21 08:00 | -4.18875 | 109.52999 | 35798 ft | 461 kts | 343° |
| 2026-04-21 08:01 | -4.12728 | 109.51137 | 35795 ft | 462 kts | 343° |
| 2026-04-21 08:02 | -4.03498 | 109.48328 | 35800 ft | 462 kts | 343° |
| 2026-04-21 08:02 | -3.97379 | 109.46469 | 35804 ft | 463 kts | 343° |
| 2026-04-21 08:03 | -3.91222 | 109.44594 | 35805 ft | 462 kts | 344° |
| 2026-04-21 08:03 | -3.85080 | 109.42728 | 35789 ft | 461 kts | 343° |
| 2026-04-21 08:04 | -3.78928 | 109.40857 | 35798 ft | 462 kts | 343° |
| 2026-04-21 08:04 | -3.72774 | 109.38986 | 35796 ft | 462 kts | 343° |
| 2026-04-21 08:05 | -3.66651 | 109.37121 | 35797 ft | 463 kts | 343° |
| 2026-04-21 08:05 | -3.60481 | 109.35251 | 35800 ft | 463 kts | 343° |
| 2026-04-21 08:06 | -3.54308 | 109.33385 | 35801 ft | 464 kts | 343° |
| 2026-04-21 08:06 | -3.48128 | 109.31511 | 35804 ft | 464 kts | 343° |
| 2026-04-21 08:07 | -3.41995 | 109.29641 | 35807 ft | 464 kts | 343° |
| 2026-04-21 08:07 | -3.35816 | 109.27758 | 35806 ft | 464 kts | 343° |
| 2026-04-21 08:08 | -3.29635 | 109.25888 | 35809 ft | 464 kts | 343° |
| 2026-04-21 08:08 | -3.23454 | 109.24018 | 35811 ft | 464 kts | 343° |
| 2026-04-21 08:09 | -3.17312 | 109.22152 | 35810 ft | 464 kts | 343° |
| 2026-04-21 08:09 | -3.11133 | 109.20273 | 35808 ft | 464 kts | 343° |
| 2026-04-21 08:10 | -3.04950 | 109.18391 | 35804 ft | 465 kts | 343° |
| 2026-04-21 08:10 | -2.98758 | 109.16518 | 35802 ft | 465 kts | 343° |
| 2026-04-21 08:11 | -2.92604 | 109.14535 | 35802 ft | 465 kts | 336° |
| 2026-04-21 08:11 | -2.87230 | 109.11074 | 35799 ft | 465 kts | 317° |
| 2026-04-21 08:12 | -2.82906 | 109.06254 | 35798 ft | 466 kts | 311° |
| 2026-04-21 08:12 | -2.78661 | 109.01349 | 35800 ft | 466 kts | 311° |
| 2026-04-21 08:13 | -2.74409 | 108.96447 | 35803 ft | 467 kts | 311° |
| 2026-04-21 08:13 | -2.70187 | 108.91567 | 35804 ft | 467 kts | 311° |
| 2026-04-21 08:14 | -2.65937 | 108.86650 | 35808 ft | 467 kts | 311° |
| 2026-04-21 08:14 | -2.61684 | 108.81737 | 35810 ft | 468 kts | 311° |
| 2026-04-21 08:15 | -2.57419 | 108.76818 | 35812 ft | 468 kts | 311° |
| 2026-04-21 08:15 | -2.53888 | 108.72729 | 35813 ft | 468 kts | 311° |
| 2026-04-21 08:16 | -2.48938 | 108.67003 | 35812 ft | 468 kts | 311° |
| 2026-04-21 08:16 | -2.44681 | 108.62079 | 35813 ft | 468 kts | 311° |
| 2026-04-21 08:17 | -2.40429 | 108.57145 | 35811 ft | 468 kts | 311° |
| 2026-04-21 08:17 | -2.36897 | 108.53040 | 35811 ft | 469 kts | 311° |
| 2026-04-21 08:18 | -2.31944 | 108.47296 | 35817 ft | 469 kts | 311° |
| 2026-04-21 08:18 | -2.27681 | 108.42356 | 35817 ft | 469 kts | 311° |
| 2026-04-21 08:19 | -2.24148 | 108.38252 | 35815 ft | 469 kts | 311° |
| 2026-04-21 08:19 | -2.19890 | 108.33316 | 35814 ft | 469 kts | 311° |
| 2026-04-21 08:20 | -2.15608 | 108.28353 | 35815 ft | 468 kts | 311° |
| 2026-04-21 08:20 | -2.11383 | 108.23452 | 35814 ft | 468 kts | 311° |
| 2026-04-21 08:21 | -2.07125 | 108.18520 | 35817 ft | 469 kts | 311° |
| 2026-04-21 08:21 | -2.02871 | 108.13586 | 35819 ft | 469 kts | 311° |
| 2026-04-21 08:22 | -1.98607 | 108.08658 | 35821 ft | 468 kts | 311° |
| 2026-04-21 08:22 | -1.94377 | 108.03756 | 35822 ft | 469 kts | 311° |
| 2026-04-21 08:23 | -1.90128 | 107.98809 | 35820 ft | 468 kts | 311° |
| 2026-04-21 08:23 | -1.85881 | 107.93883 | 35824 ft | 468 kts | 311° |
| 2026-04-21 08:24 | -1.81618 | 107.88950 | 35820 ft | 468 kts | 311° |
| 2026-04-21 08:24 | -1.77359 | 107.84019 | 35821 ft | 468 kts | 311° |
| 2026-04-21 08:25 | -1.73135 | 107.79125 | 35819 ft | 468 kts | 311° |
| 2026-04-21 08:25 | -1.68885 | 107.74189 | 35820 ft | 468 kts | 311° |
| 2026-04-21 08:26 | -1.64634 | 107.69254 | 35822 ft | 469 kts | 311° |
| 2026-04-21 08:26 | -1.60374 | 107.64326 | 35822 ft | 468 kts | 311° |
| 2026-04-21 08:27 | -1.56119 | 107.59391 | 35821 ft | 468 kts | 311° |
| 2026-04-21 08:27 | -1.51895 | 107.54492 | 35819 ft | 468 kts | 311° |
| 2026-04-21 08:28 | -1.47638 | 107.49568 | 35818 ft | 468 kts | 311° |
| 2026-04-21 08:28 | -1.43391 | 107.44647 | 35831 ft | 468 kts | 311° |
| 2026-04-21 08:29 | -1.39142 | 107.39714 | 35826 ft | 468 kts | 311° |
| 2026-04-21 08:29 | -1.34881 | 107.34795 | 35824 ft | 468 kts | 311° |
| 2026-04-21 08:30 | -1.30594 | 107.29958 | 35822 ft | 468 kts | 311° |
| 2026-04-21 08:30 | -1.26254 | 107.25109 | 35822 ft | 468 kts | 311° |
| 2026-04-21 08:31 | -1.21931 | 107.20251 | 35826 ft | 468 kts | 311° |
| 2026-04-21 08:31 | -1.17613 | 107.15383 | 35827 ft | 468 kts | 311° |
| 2026-04-21 08:32 | -1.13305 | 107.10515 | 35825 ft | 467 kts | 311° |
| 2026-04-21 08:32 | -1.09026 | 107.05684 | 35827 ft | 467 kts | 311° |
| 2026-04-21 08:33 | -1.04712 | 107.00832 | 35826 ft | 467 kts | 311° |
| 2026-04-21 08:33 | -1.00407 | 106.95977 | 35825 ft | 467 kts | 311° |
| 2026-04-21 08:34 | -0.96107 | 106.91117 | 35825 ft | 467 kts | 311° |
| 2026-04-21 08:34 | -0.91795 | 106.86266 | 35825 ft | 467 kts | 311° |
| 2026-04-21 08:35 | -0.87514 | 106.81440 | 35826 ft | 467 kts | 311° |
| 2026-04-21 08:35 | -0.83211 | 106.76580 | 35832 ft | 467 kts | 311° |
| 2026-04-21 08:36 | -0.78905 | 106.71726 | 35831 ft | 467 kts | 311° |
| 2026-04-21 08:36 | -0.74588 | 106.66871 | 35833 ft | 467 kts | 311° |
| 2026-04-21 08:37 | -0.70279 | 106.62009 | 35836 ft | 467 kts | 311° |
| 2026-04-21 08:37 | -0.66003 | 106.57189 | 35842 ft | 467 kts | 311° |
| 2026-04-21 08:38 | -0.61677 | 106.52360 | 35838 ft | 466 kts | 314° |
| 2026-04-21 08:38 | -0.56868 | 106.48012 | 35838 ft | 466 kts | 318° |
| 2026-04-21 08:39 | -0.52022 | 106.43719 | 35841 ft | 466 kts | 318° |
| 2026-04-21 08:39 | -0.47183 | 106.39414 | 35842 ft | 466 kts | 318° |
| 2026-04-21 08:40 | -0.42357 | 106.35110 | 35850 ft | 465 kts | 318° |
| 2026-04-21 08:40 | -0.37564 | 106.30845 | 35851 ft | 464 kts | 318° |
| 2026-04-21 08:41 | -0.32727 | 106.26559 | 35861 ft | 464 kts | 318° |
| 2026-04-21 08:41 | -0.27896 | 106.22271 | 35863 ft | 464 kts | 318° |
| 2026-04-21 08:42 | -0.23066 | 106.17982 | 35851 ft | 464 kts | 318° |
| 2026-04-21 08:42 | -0.18271 | 106.13721 | 35861 ft | 464 kts | 318° |
| 2026-04-21 08:43 | -0.13445 | 106.09435 | 35867 ft | 464 kts | 318° |
| 2026-04-21 08:43 | -0.08623 | 106.05154 | 35858 ft | 464 kts | 318° |
| 2026-04-21 08:44 | -0.03808 | 106.00870 | 35864 ft | 463 kts | 318° |
| 2026-04-21 08:44 | 0.00970 | 105.96621 | 35861 ft | 463 kts | 318° |
| 2026-04-21 08:45 | 0.05819 | 105.92314 | 35866 ft | 463 kts | 318° |
| 2026-04-21 08:45 | 0.10606 | 105.88064 | 35861 ft | 464 kts | 318° |
| 2026-04-21 08:46 | 0.15431 | 105.83783 | 35866 ft | 463 kts | 318° |
| 2026-04-21 08:46 | 0.20247 | 105.79504 | 35870 ft | 464 kts | 318° |
| 2026-04-21 08:47 | 0.25066 | 105.75219 | 35866 ft | 463 kts | 318° |
| 2026-04-21 08:47 | 0.29875 | 105.70941 | 35871 ft | 463 kts | 318° |
| 2026-04-21 08:48 | 0.34683 | 105.66666 | 35861 ft | 463 kts | 318° |
| 2026-04-21 08:48 | 0.39502 | 105.62390 | 35865 ft | 464 kts | 318° |
| 2026-04-21 08:49 | 0.44294 | 105.58133 | 35869 ft | 464 kts | 318° |
| 2026-04-21 08:49 | 0.49115 | 105.53844 | 35881 ft | 464 kts | 318° |
| 2026-04-21 08:50 | 0.53942 | 105.49555 | 35881 ft | 464 kts | 318° |
| 2026-04-21 08:50 | 0.58755 | 105.45279 | 35889 ft | 463 kts | 318° |
| 2026-04-21 08:51 | 0.63595 | 105.41123 | 35885 ft | 461 kts | 324° |
| 2026-04-21 08:51 | 0.69105 | 105.37851 | 35884 ft | 461 kts | 330° |
| 2026-04-21 08:51 | 0.71900 | 105.36286 | 35674 ft | 459 kts | 330° |
| 2026-04-21 08:52 | 0.74687 | 105.34722 | 34233 ft | 463 kts | 330° |
| 2026-04-21 08:52 | 0.77526 | 105.33127 | 32453 ft | 473 kts | 330° |
| 2026-04-21 08:52 | 0.80411 | 105.31505 | 30651 ft | 478 kts | 330° |
| 2026-04-21 08:52 | 0.83325 | 105.29862 | 28893 ft | 480 kts | 330° |
| 2026-04-21 08:53 | 0.86243 | 105.28215 | 27797 ft | 481 kts | 330° |
| 2026-04-21 08:53 | 0.89160 | 105.26578 | 26641 ft | 482 kts | 330° |
| 2026-04-21 08:53 | 0.92058 | 105.24959 | 25362 ft | 485 kts | 330° |
| 2026-04-21 08:53 | 0.95013 | 105.23315 | 24230 ft | 485 kts | 330° |
| 2026-04-21 08:54 | 0.97936 | 105.21684 | 23381 ft | 478 kts | 330° |
| 2026-04-21 08:54 | 1.00817 | 105.20069 | 22620 ft | 470 kts | 330° |
| 2026-04-21 08:54 | 1.03615 | 105.18493 | 22452 ft | 452 kts | 330° |
| 2026-04-21 08:54 | 1.06295 | 105.16980 | 22325 ft | 434 kts | 330° |
| 2026-04-21 08:55 | 1.08871 | 105.15532 | 22182 ft | 417 kts | 330° |
| 2026-04-21 08:55 | 1.11359 | 105.14136 | 22059 ft | 404 kts | 330° |
| 2026-04-21 08:55 | 1.13751 | 105.12750 | 21932 ft | 392 kts | 325° |
| 2026-04-21 08:55 | 1.15703 | 105.10984 | 21808 ft | 380 kts | 308° |
| 2026-04-21 08:56 | 1.17043 | 105.08760 | 21683 ft | 369 kts | 292° |
| 2026-04-21 08:56 | 1.17691 | 105.06327 | 21225 ft | 359 kts | 276° |
| 2026-04-21 08:56 | 1.17718 | 105.03851 | 20474 ft | 356 kts | 268° |
| 2026-04-21 08:56 | 1.17652 | 105.01387 | 19746 ft | 352 kts | 268° |
| 2026-04-21 08:57 | 1.17590 | 104.98954 | 19153 ft | 347 kts | 269° |
| 2026-04-21 08:57 | 1.17529 | 104.96540 | 18599 ft | 350 kts | 269° |
| 2026-04-21 08:57 | 1.17476 | 104.94114 | 18210 ft | 347 kts | 269° |
| 2026-04-21 08:57 | 1.17423 | 104.91730 | 17642 ft | 345 kts | 269° |
| 2026-04-21 08:58 | 1.17374 | 104.89350 | 16962 ft | 341 kts | 269° |
| 2026-04-21 08:58 | 1.17329 | 104.87009 | 16370 ft | 333 kts | 269° |
| 2026-04-21 08:58 | 1.17273 | 104.84708 | 15897 ft | 325 kts | 268° |
| 2026-04-21 08:58 | 1.17227 | 104.82505 | 15748 ft | 313 kts | 269° |
| 2026-04-21 08:59 | 1.17183 | 104.80357 | 15619 ft | 304 kts | 269° |
| 2026-04-21 08:59 | 1.17138 | 104.78276 | 15463 ft | 296 kts | 269° |
| 2026-04-21 08:59 | 1.17090 | 104.76235 | 15239 ft | 292 kts | 269° |
| 2026-04-21 08:59 | 1.17039 | 104.74216 | 14956 ft | 289 kts | 269° |
| 2026-04-21 09:00 | 1.16987 | 104.72217 | 14669 ft | 288 kts | 269° |
| 2026-04-21 09:00 | 1.16936 | 104.70252 | 14383 ft | 286 kts | 269° |
| 2026-04-21 09:00 | 1.16887 | 104.68277 | 14099 ft | 284 kts | 268° |
| 2026-04-21 09:00 | 1.16832 | 104.66301 | 13815 ft | 284 kts | 268° |
| 2026-04-21 09:01 | 1.16777 | 104.64326 | 13553 ft | 284 kts | 269° |
| 2026-04-21 09:01 | 1.16731 | 104.62364 | 13265 ft | 282 kts | 269° |
| 2026-04-21 09:01 | 1.16687 | 104.60419 | 12964 ft | 279 kts | 269° |
| 2026-04-21 09:01 | 1.16641 | 104.58470 | 12685 ft | 279 kts | 269° |
| 2026-04-21 09:02 | 1.16594 | 104.56560 | 12393 ft | 276 kts | 269° |
| 2026-04-21 09:02 | 1.16554 | 104.54636 | 12128 ft | 274 kts | 268° |
| 2026-04-21 09:02 | 1.16500 | 104.52728 | 11847 ft | 277 kts | 268° |
| 2026-04-21 09:03 | 1.16397 | 104.48941 | 11302 ft | 269 kts | 269° |
| 2026-04-21 09:03 | 1.16349 | 104.47100 | 11048 ft | 268 kts | 269° |
| 2026-04-21 09:03 | 1.16306 | 104.45254 | 10884 ft | 266 kts | 269° |
| 2026-04-21 09:03 | 1.16253 | 104.43409 | 10640 ft | 266 kts | 268° |
| 2026-04-21 09:04 | 1.16199 | 104.41573 | 10381 ft | 263 kts | 269° |
| 2026-04-21 09:04 | 1.16154 | 104.39742 | 10123 ft | 263 kts | 269° |
| 2026-04-21 09:04 | 1.16052 | 104.37914 | 9846 ft | 262 kts | 266° |
| 2026-04-21 09:04 | 1.15905 | 104.36110 | 9586 ft | 259 kts | 266° |
| 2026-04-21 09:05 | 1.15735 | 104.34328 | 9350 ft | 256 kts | 265° |
| 2026-04-21 09:05 | 1.15570 | 104.32574 | 9082 ft | 257 kts | 266° |
| 2026-04-21 09:05 | 1.15414 | 104.30801 | 8820 ft | 254 kts | 266° |
| 2026-04-21 09:05 | 1.15266 | 104.29045 | 8565 ft | 254 kts | 265° |
| 2026-04-21 09:06 | 1.15118 | 104.27292 | 8312 ft | 253 kts | 266° |
| 2026-04-21 09:06 | 1.14973 | 104.25547 | 8065 ft | 252 kts | 266° |
| 2026-04-21 09:06 | 1.14825 | 104.23802 | 7807 ft | 251 kts | 266° |
| 2026-04-21 09:06 | 1.14678 | 104.22073 | 7558 ft | 250 kts | 266° |
| 2026-04-21 09:07 | 1.14535 | 104.20344 | 7308 ft | 249 kts | 266° |
| 2026-04-21 09:07 | 1.14410 | 104.18646 | 7061 ft | 248 kts | 266° |
| 2026-04-21 09:07 | 1.14290 | 104.16935 | 6812 ft | 247 kts | 266° |
| 2026-04-21 09:07 | 1.14172 | 104.15229 | 6566 ft | 246 kts | 266° |
| 2026-04-21 09:08 | 1.14053 | 104.13528 | 6323 ft | 245 kts | 266° |
| 2026-04-21 09:08 | 1.13931 | 104.11830 | 6074 ft | 244 kts | 266° |
| 2026-04-21 09:08 | 1.13810 | 104.10143 | 5839 ft | 243 kts | 266° |
| 2026-04-21 09:08 | 1.13690 | 104.08457 | 5585 ft | 243 kts | 266° |
| 2026-04-21 09:09 | 1.13570 | 104.06782 | 5351 ft | 242 kts | 266° |
| 2026-04-21 09:09 | 1.13451 | 104.05105 | 5106 ft | 242 kts | 266° |
| 2026-04-21 09:09 | 1.13335 | 104.03452 | 4851 ft | 240 kts | 267° |
| 2026-04-21 09:09 | 1.13222 | 104.01773 | 4608 ft | 238 kts | 267° |
| 2026-04-21 09:10 | 1.13109 | 104.00137 | 4366 ft | 240 kts | 268° |
| 2026-04-21 09:10 | 1.12980 | 103.98468 | 4172 ft | 240 kts | 266° |
| 2026-04-21 09:10 | 1.12840 | 103.96828 | 4044 ft | 234 kts | 270° |
| 2026-04-21 09:10 | 1.13165 | 103.95286 | 3924 ft | 228 kts | 295° |
| 2026-04-21 09:11 | 1.13930 | 103.93800 | 3886 ft | 255 kts | 297° |
| 2026-04-21 09:11 | 1.14859 | 103.92178 | 4180 ft | 277 kts | 305° |
| 2026-04-21 09:11 | 1.16139 | 103.90795 | 4240 ft | 269 kts | 328° |
| 2026-04-21 09:11 | 1.17893 | 103.90309 | 3884 ft | 262 kts | 4° |
| 2026-04-21 09:12 | 1.19603 | 103.90822 | 3462 ft | 255 kts | 26° |
| 2026-04-21 09:12 | 1.21050 | 103.91736 | 3143 ft | 243 kts | 37° |
| 2026-04-21 09:12 | 1.22381 | 103.92682 | 2783 ft | 229 kts | 27° |
| 2026-04-21 09:12 | 1.23814 | 103.93279 | 2312 ft | 217 kts | 24° |
| 2026-04-21 09:13 | 1.25155 | 103.93861 | 2053 ft | 203 kts | 15° |
| 2026-04-21 09:13 | 1.26468 | 103.94259 | 1818 ft | 195 kts | 18° |
| 2026-04-21 09:13 | 1.27717 | 103.94731 | 1596 ft | 183 kts | 20° |
| 2026-04-21 09:13 | 1.28841 | 103.95194 | 1346 ft | 165 kts | 21° |
| 2026-04-21 09:14 | 1.29836 | 103.95611 | 1132 ft | 148 kts | 21° |
| 2026-04-21 09:14 | 1.30762 | 103.96000 | 940 ft | 142 kts | 21° |
| 2026-04-21 09:14 | 1.31663 | 103.96380 | 754 ft | 140 kts | 21° |
| 2026-04-21 09:14 | 1.32554 | 103.96756 | 576 ft | 139 kts | 21° |
| 2026-04-21 09:15 | 1.33447 | 103.97132 | 390 ft | 138 kts | 22° |
| 2026-04-21 09:15 | 1.34335 | 103.97506 | 216 ft | 139 kts | 21° |
| 2026-04-21 09:15 | 1.35218 | 103.97881 | 51 ft | 138 kts | 22° |
| 2026-04-21 09:15 | 1.36023 | 103.98221 | 31 ft | 103 kts | 22° |
| 2026-04-21 09:16 | 1.36524 | 103.98434 | 31 ft | 60 kts | 25° |
| 2026-04-21 09:16 | 1.36761 | 103.98642 | 29 ft | 34 kts | 53° |
| 2026-04-21 09:16 | 1.36839 | 103.98764 | 30 ft | 19 kts | 77° |
| 2026-04-21 09:16 | 1.36804 | 103.98882 | 30 ft | 19 kts | 114° |
| 2026-04-21 09:17 | 1.36748 | 103.99007 | 30 ft | 21 kts | 114° |
| 2026-04-21 09:17 | 1.36686 | 103.99151 | 30 ft | 23 kts | 113° |
| 2026-04-21 09:17 | 1.36621 | 103.99305 | 30 ft | 25 kts | 112° |
| 2026-04-21 09:17 | 1.36550 | 103.99473 | 30 ft | 27 kts | 113° |
| 2026-04-21 09:18 | 1.36503 | 103.99577 | 30 ft | 8 kts | 114° |
| 2026-04-21 09:18 | 1.36453 | 103.99609 | 30 ft | 10 kts | 182° |
| 2026-04-21 09:18 | 1.36382 | 103.99572 | 30 ft | 13 kts | 223° |
| 2026-04-21 09:18 | 1.36321 | 103.99495 | 30 ft | 12 kts | 233° |
| 2026-04-21 09:19 | 1.36310 | 103.99480 | 30 ft | 3 kts | 233° |
| 2026-04-21 09:19 | 1.36305 | 103.99471 | 30 ft | 1 kts | 244° |
| 2026-04-21 09:19 | 1.36307 | 103.99457 | 30 ft | 3 kts | 291° |
| 2026-04-21 09:19 | 1.36328 | 103.99441 | 30 ft | 5 kts | 322° |
| 2026-04-21 09:20 | 1.36360 | 103.99416 | 30 ft | 6 kts | 323° |
| 2026-04-21 09:20 | 1.36366 | 103.99412 | 30 ft | 2 kts | 323° |
| 2026-04-21 09:20 | 1.36368 | 103.99410 | 30 ft | 0 kts | 323° |